sensor_id;sensor_type;location;lat;lon;timestamp;temperature;humidity
4081;DHT22;2055;50.074;8.436;2022-07-10T00:00:36;15.20;99.90
4081;DHT22;2055;50.074;8.436;2022-07-10T00:03:03;15.20;99.90
4081;DHT22;2055;50.074;8.436;2022-07-10T00:05:30;15.10;99.90
4081;DHT22;2055;50.074;8.436;2022-07-10T00:07:55;15.00;99.90
4081;DHT22;2055;50.074;8.436;2022-07-10T00:10:21;14.90;99.90
4081;DHT22;2055;50.074;8.436;2022-07-10T00:12:48;14.90;99.90
4081;DHT22;2055;50.074;8.436;2022-07-10T00:15:15;14.90;99.90
4081;DHT22;2055;50.074;8.436;2022-07-10T00:17:41;14.90;99.90
4081;DHT22;2055;50.074;8.436;2022-07-10T00:20:08;14.90;99.90
4081;DHT22;2055;50.074;8.436;2022-07-10T00:22:34;15.00;99.90
4081;DHT22;2055;50.074;8.436;2022-07-10T00:25:04;15.10;99.90
4081;DHT22;2055;50.074;8.436;2022-07-10T00:27:31;15.20;99.90
4081;DHT22;2055;50.074;8.436;2022-07-10T00:29:56;15.20;99.90
4081;DHT22;2055;50.074;8.436;2022-07-10T00:32:23;15.20;99.90
4081;DHT22;2055;50.074;8.436;2022-07-10T00:34:48;15.20;99.90
4081;DHT22;2055;50.074;8.436;2022-07-10T00:37:14;15.10;99.90
4081;DHT22;2055;50.074;8.436;2022-07-10T00:39:40;15.10;99.90
4081;DHT22;2055;50.074;8.436;2022-07-10T00:42:13;15.10;99.90
4081;DHT22;2055;50.074;8.436;2022-07-10T00:44:39;15.00;99.90
4081;DHT22;2055;50.074;8.436;2022-07-10T00:47:05;15.00;99.90
4081;DHT22;2055;50.074;8.436;2022-07-10T00:49:32;15.00;99.90
4081;DHT22;2055;50.074;8.436;2022-07-10T00:52:00;15.00;99.90
4081;DHT22;2055;50.074;8.436;2022-07-10T00:54:27;15.00;99.90
4081;DHT22;2055;50.074;8.436;2022-07-10T00:56:53;14.90;99.90
4081;DHT22;2055;50.074;8.436;2022-07-10T00:59:19;14.90;99.90
4081;DHT22;2055;50.074;8.436;2022-07-10T01:01:45;14.80;99.90
4081;DHT22;2055;50.074;8.436;2022-07-10T01:04:11;15.20;99.90
4081;DHT22;2055;50.074;8.436;2022-07-10T01:06:36;15.00;99.90
4081;DHT22;2055;50.074;8.436;2022-07-10T01:09:02;14.80;99.90
4081;DHT22;2055;50.074;8.436;2022-07-10T01:11:29;14.70;99.90
4081;DHT22;2055;50.074;8.436;2022-07-10T01:13:55;14.70;99.90
4081;DHT22;2055;50.074;8.436;2022-07-10T01:16:21;14.70;99.90
4081;DHT22;2055;50.074;8.436;2022-07-10T01:18:47;14.70;99.90
4081;DHT22;2055;50.074;8.436;2022-07-10T01:21:33;14.60;99.90
4081;DHT22;2055;50.074;8.436;2022-07-10T01:24:00;14.50;99.90
4081;DHT22;2055;50.074;8.436;2022-07-10T01:26:29;14.50;99.90
4081;DHT22;2055;50.074;8.436;2022-07-10T01:28:55;14.50;99.90
4081;DHT22;2055;50.074;8.436;2022-07-10T01:31:25;14.40;99.90
4081;DHT22;2055;50.074;8.436;2022-07-10T01:33:54;14.40;99.90
4081;DHT22;2055;50.074;8.436;2022-07-10T01:36:21;14.30;99.90
4081;DHT22;2055;50.074;8.436;2022-07-10T01:38:47;14.20;99.90
4081;DHT22;2055;50.074;8.436;2022-07-10T01:41:13;14.20;99.90
4081;DHT22;2055;50.074;8.436;2022-07-10T01:43:38;14.20;99.90
4081;DHT22;2055;50.074;8.436;2022-07-10T01:46:08;14.20;99.90
4081;DHT22;2055;50.074;8.436;2022-07-10T01:48:37;14.50;99.90
4081;DHT22;2055;50.074;8.436;2022-07-10T01:51:03;14.10;99.90
4081;DHT22;2055;50.074;8.436;2022-07-10T01:53:29;14.10;99.90
4081;DHT22;2055;50.074;8.436;2022-07-10T01:59:16;14.10;99.90
4081;DHT22;2055;50.074;8.436;2022-07-10T02:01:41;14.10;99.90
4081;DHT22;2055;50.074;8.436;2022-07-10T02:04:07;13.90;99.90
4081;DHT22;2055;50.074;8.436;2022-07-10T02:07:15;14.00;99.90
4081;DHT22;2055;50.074;8.436;2022-07-10T02:09:41;13.90;99.90
4081;DHT22;2055;50.074;8.436;2022-07-10T02:12:09;14.00;99.90
4081;DHT22;2055;50.074;8.436;2022-07-10T02:14:35;14.00;99.90
4081;DHT22;2055;50.074;8.436;2022-07-10T02:17:00;13.90;99.90
4081;DHT22;2055;50.074;8.436;2022-07-10T02:19:26;13.90;99.90
4081;DHT22;2055;50.074;8.436;2022-07-10T02:21:52;13.80;99.90
4081;DHT22;2055;50.074;8.436;2022-07-10T02:24:18;13.80;99.90
4081;DHT22;2055;50.074;8.436;2022-07-10T02:26:43;14.50;99.90
4081;DHT22;2055;50.074;8.436;2022-07-10T02:29:09;13.90;99.90
4081;DHT22;2055;50.074;8.436;2022-07-10T02:31:34;13.80;99.90
4081;DHT22;2055;50.074;8.436;2022-07-10T02:34:09;13.70;99.90
4081;DHT22;2055;50.074;8.436;2022-07-10T02:36:34;13.70;99.90
4081;DHT22;2055;50.074;8.436;2022-07-10T02:39:00;14.70;99.90
4081;DHT22;2055;50.074;8.436;2022-07-10T02:41:26;13.70;99.90
4081;DHT22;2055;50.074;8.436;2022-07-10T02:43:51;13.70;99.90
4081;DHT22;2055;50.074;8.436;2022-07-10T02:46:17;13.60;99.90
4081;DHT22;2055;50.074;8.436;2022-07-10T02:48:43;13.60;99.90
4081;DHT22;2055;50.074;8.436;2022-07-10T02:51:08;13.60;99.90
4081;DHT22;2055;50.074;8.436;2022-07-10T02:53:34;13.50;99.90
4081;DHT22;2055;50.074;8.436;2022-07-10T02:56:00;13.70;99.90
4081;DHT22;2055;50.074;8.436;2022-07-10T02:58:25;13.60;99.90
4081;DHT22;2055;50.074;8.436;2022-07-10T03:00:51;13.50;99.90
4081;DHT22;2055;50.074;8.436;2022-07-10T03:03:17;13.40;99.90
4081;DHT22;2055;50.074;8.436;2022-07-10T03:05:46;13.30;99.90
4081;DHT22;2055;50.074;8.436;2022-07-10T03:08:12;13.20;99.90
4081;DHT22;2055;50.074;8.436;2022-07-10T03:10:38;13.10;99.90
4081;DHT22;2055;50.074;8.436;2022-07-10T03:13:03;13.10;99.90
4081;DHT22;2055;50.074;8.436;2022-07-10T03:15:29;13.10;99.90
4081;DHT22;2055;50.074;8.436;2022-07-10T03:17:55;13.10;99.90
4081;DHT22;2055;50.074;8.436;2022-07-10T03:20:20;13.20;99.90
4081;DHT22;2055;50.074;8.436;2022-07-10T03:22:46;13.20;99.90
4081;DHT22;2055;50.074;8.436;2022-07-10T03:25:11;13.10;99.90
4081;DHT22;2055;50.074;8.436;2022-07-10T03:27:37;13.20;99.90
4081;DHT22;2055;50.074;8.436;2022-07-10T03:30:03;13.10;99.90
4081;DHT22;2055;50.074;8.436;2022-07-10T03:32:29;13.10;99.90
4081;DHT22;2055;50.074;8.436;2022-07-10T03:34:55;13.20;99.90
4081;DHT22;2055;50.074;8.436;2022-07-10T03:37:21;13.10;99.90
4081;DHT22;2055;50.074;8.436;2022-07-10T03:39:46;13.10;99.90
4081;DHT22;2055;50.074;8.436;2022-07-10T03:42:12;13.10;99.90
4081;DHT22;2055;50.074;8.436;2022-07-10T03:44:37;13.00;99.90
4081;DHT22;2055;50.074;8.436;2022-07-10T03:47:03;12.90;99.90
4081;DHT22;2055;50.074;8.436;2022-07-10T03:49:29;12.80;99.90
4081;DHT22;2055;50.074;8.436;2022-07-10T03:51:59;12.80;99.90
4081;DHT22;2055;50.074;8.436;2022-07-10T03:54:24;12.80;99.90
4081;DHT22;2055;50.074;8.436;2022-07-10T03:56:50;12.80;99.90
4081;DHT22;2055;50.074;8.436;2022-07-10T03:59:34;12.80;99.90
4081;DHT22;2055;50.074;8.436;2022-07-10T04:02:00;12.70;99.90
4081;DHT22;2055;50.074;8.436;2022-07-10T04:04:25;12.70;99.90
4081;DHT22;2055;50.074;8.436;2022-07-10T04:06:51;12.70;99.90
4081;DHT22;2055;50.074;8.436;2022-07-10T04:09:16;12.70;99.90
4081;DHT22;2055;50.074;8.436;2022-07-10T04:11:42;12.70;99.90
4081;DHT22;2055;50.074;8.436;2022-07-10T04:14:08;12.70;99.90
4081;DHT22;2055;50.074;8.436;2022-07-10T04:16:33;12.80;99.90
4081;DHT22;2055;50.074;8.436;2022-07-10T04:18:59;12.90;99.90
4081;DHT22;2055;50.074;8.436;2022-07-10T04:21:24;12.90;99.90
4081;DHT22;2055;50.074;8.436;2022-07-10T04:23:50;13.00;99.90
4081;DHT22;2055;50.074;8.436;2022-07-10T04:26:15;13.10;99.90
4081;DHT22;2055;50.074;8.436;2022-07-10T04:28:41;13.20;99.90
4081;DHT22;2055;50.074;8.436;2022-07-10T04:31:06;13.30;99.90
4081;DHT22;2055;50.074;8.436;2022-07-10T04:33:32;13.30;99.90
4081;DHT22;2055;50.074;8.436;2022-07-10T04:35:57;14.30;99.90
4081;DHT22;2055;50.074;8.436;2022-07-10T04:38:23;13.40;99.90
4081;DHT22;2055;50.074;8.436;2022-07-10T04:40:48;13.50;99.90
4081;DHT22;2055;50.074;8.436;2022-07-10T04:43:14;13.60;99.90
4081;DHT22;2055;50.074;8.436;2022-07-10T04:45:39;13.70;99.90
4081;DHT22;2055;50.074;8.436;2022-07-10T04:48:05;13.70;99.90
4081;DHT22;2055;50.074;8.436;2022-07-10T04:50:31;13.90;99.90
4081;DHT22;2055;50.074;8.436;2022-07-10T04:52:56;14.00;99.90
4081;DHT22;2055;50.074;8.436;2022-07-10T04:55:22;14.00;99.90
4081;DHT22;2055;50.074;8.436;2022-07-10T04:57:48;15.40;99.90
4081;DHT22;2055;50.074;8.436;2022-07-10T05:00:15;14.20;99.90
4081;DHT22;2055;50.074;8.436;2022-07-10T05:02:41;13.90;99.90
4081;DHT22;2055;50.074;8.436;2022-07-10T05:05:07;14.60;99.90
4081;DHT22;2055;50.074;8.436;2022-07-10T05:07:33;14.40;99.90
4081;DHT22;2055;50.074;8.436;2022-07-10T05:09:58;14.40;99.90
4081;DHT22;2055;50.074;8.436;2022-07-10T05:12:24;14.40;99.90
4081;DHT22;2055;50.074;8.436;2022-07-10T05:14:49;14.30;99.90
4081;DHT22;2055;50.074;8.436;2022-07-10T05:17:15;14.20;99.90
4081;DHT22;2055;50.074;8.436;2022-07-10T05:19:41;14.10;99.90
4081;DHT22;2055;50.074;8.436;2022-07-10T05:22:06;15.20;99.90
4081;DHT22;2055;50.074;8.436;2022-07-10T05:24:32;14.00;99.90
4081;DHT22;2055;50.074;8.436;2022-07-10T05:26:58;14.10;99.90
4081;DHT22;2055;50.074;8.436;2022-07-10T05:29:23;14.10;99.90
4081;DHT22;2055;50.074;8.436;2022-07-10T05:31:49;14.30;99.90
4081;DHT22;2055;50.074;8.436;2022-07-10T05:34:15;14.30;99.90
4081;DHT22;2055;50.074;8.436;2022-07-10T05:36:40;14.40;99.90
4081;DHT22;2055;50.074;8.436;2022-07-10T05:39:06;14.40;99.90
4081;DHT22;2055;50.074;8.436;2022-07-10T05:41:32;14.60;99.90
4081;DHT22;2055;50.074;8.436;2022-07-10T05:43:59;14.60;99.90
4081;DHT22;2055;50.074;8.436;2022-07-10T05:46:25;14.60;99.90
4081;DHT22;2055;50.074;8.436;2022-07-10T05:48:50;14.70;99.90
4081;DHT22;2055;50.074;8.436;2022-07-10T05:51:16;14.80;99.90
4081;DHT22;2055;50.074;8.436;2022-07-10T05:53:41;14.80;99.90
4081;DHT22;2055;50.074;8.436;2022-07-10T05:56:07;14.90;99.90
4081;DHT22;2055;50.074;8.436;2022-07-10T05:58:32;15.10;99.90
4081;DHT22;2055;50.074;8.436;2022-07-10T06:00:58;14.90;99.90
4081;DHT22;2055;50.074;8.436;2022-07-10T06:03:23;14.80;99.90
4081;DHT22;2055;50.074;8.436;2022-07-10T06:05:49;15.00;99.90
4081;DHT22;2055;50.074;8.436;2022-07-10T06:08:15;15.10;99.90
4081;DHT22;2055;50.074;8.436;2022-07-10T06:10:41;15.30;99.90
4081;DHT22;2055;50.074;8.436;2022-07-10T06:13:09;15.40;99.90
4081;DHT22;2055;50.074;8.436;2022-07-10T06:15:35;15.60;99.90
4081;DHT22;2055;50.074;8.436;2022-07-10T06:18:01;15.70;99.90
4081;DHT22;2055;50.074;8.436;2022-07-10T06:20:27;15.60;99.90
4081;DHT22;2055;50.074;8.436;2022-07-10T06:22:52;15.40;99.90
4081;DHT22;2055;50.074;8.436;2022-07-10T06:25:18;16.60;99.90
4081;DHT22;2055;50.074;8.436;2022-07-10T06:27:44;15.60;99.90
4081;DHT22;2055;50.074;8.436;2022-07-10T06:30:10;15.50;99.90
4081;DHT22;2055;50.074;8.436;2022-07-10T06:32:35;15.50;99.90
4081;DHT22;2055;50.074;8.436;2022-07-10T06:35:01;15.30;99.90
4081;DHT22;2055;50.074;8.436;2022-07-10T06:37:27;15.20;99.90
4081;DHT22;2055;50.074;8.436;2022-07-10T06:39:53;15.10;99.90
4081;DHT22;2055;50.074;8.436;2022-07-10T06:42:18;15.20;99.90
4081;DHT22;2055;50.074;8.436;2022-07-10T06:44:45;15.10;99.90
4081;DHT22;2055;50.074;8.436;2022-07-10T06:47:12;15.00;99.90
4081;DHT22;2055;50.074;8.436;2022-07-10T06:49:57;16.70;99.90
4081;DHT22;2055;50.074;8.436;2022-07-10T06:52:23;16.00;99.90
4081;DHT22;2055;50.074;8.436;2022-07-10T06:54:49;16.40;99.90
4081;DHT22;2055;50.074;8.436;2022-07-10T06:57:15;16.10;99.90
4081;DHT22;2055;50.074;8.436;2022-07-10T06:59:41;16.10;99.90
4081;DHT22;2055;50.074;8.436;2022-07-10T07:02:07;16.60;99.90
4081;DHT22;2055;50.074;8.436;2022-07-10T07:04:32;16.50;99.90
4081;DHT22;2055;50.074;8.436;2022-07-10T07:06:58;17.00;99.90
4081;DHT22;2055;50.074;8.436;2022-07-10T07:09:24;16.50;99.90
4081;DHT22;2055;50.074;8.436;2022-07-10T07:11:49;16.50;99.90
4081;DHT22;2055;50.074;8.436;2022-07-10T07:14:15;17.20;99.90
4081;DHT22;2055;50.074;8.436;2022-07-10T07:16:40;17.50;99.90
4081;DHT22;2055;50.074;8.436;2022-07-10T07:19:11;17.20;99.90
4081;DHT22;2055;50.074;8.436;2022-07-10T07:21:41;17.50;99.90
4081;DHT22;2055;50.074;8.436;2022-07-10T07:24:25;17.30;99.90
4081;DHT22;2055;50.074;8.436;2022-07-10T07:26:50;17.20;99.90
4081;DHT22;2055;50.074;8.436;2022-07-10T07:29:17;17.10;99.90
4081;DHT22;2055;50.074;8.436;2022-07-10T07:31:43;17.10;99.90
4081;DHT22;2055;50.074;8.436;2022-07-10T07:34:09;17.20;99.90
4081;DHT22;2055;50.074;8.436;2022-07-10T07:36:35;17.30;99.90
4081;DHT22;2055;50.074;8.436;2022-07-10T07:39:01;17.30;99.90
4081;DHT22;2055;50.074;8.436;2022-07-10T07:41:27;17.60;99.90
4081;DHT22;2055;50.074;8.436;2022-07-10T07:43:52;17.50;99.90
4081;DHT22;2055;50.074;8.436;2022-07-10T07:46:18;18.00;99.90
4081;DHT22;2055;50.074;8.436;2022-07-10T07:48:44;17.60;99.90
4081;DHT22;2055;50.074;8.436;2022-07-10T07:51:10;17.60;99.90
4081;DHT22;2055;50.074;8.436;2022-07-10T07:53:35;17.10;99.90
4081;DHT22;2055;50.074;8.436;2022-07-10T07:56:01;17.20;99.90
4081;DHT22;2055;50.074;8.436;2022-07-10T07:58:27;17.20;99.90
4081;DHT22;2055;50.074;8.436;2022-07-10T08:00:52;17.50;99.90
4081;DHT22;2055;50.074;8.436;2022-07-10T08:03:18;17.00;99.90
4081;DHT22;2055;50.074;8.436;2022-07-10T08:05:43;16.90;99.90
4081;DHT22;2055;50.074;8.436;2022-07-10T08:08:09;17.90;99.90
4081;DHT22;2055;50.074;8.436;2022-07-10T08:10:37;18.20;99.90
4081;DHT22;2055;50.074;8.436;2022-07-10T08:13:03;17.30;99.90
4081;DHT22;2055;50.074;8.436;2022-07-10T08:15:29;17.20;99.90
4081;DHT22;2055;50.074;8.436;2022-07-10T08:17:57;17.60;99.90
4081;DHT22;2055;50.074;8.436;2022-07-10T08:20:24;17.80;99.90
4081;DHT22;2055;50.074;8.436;2022-07-10T08:22:51;18.00;99.90
4081;DHT22;2055;50.074;8.436;2022-07-10T08:25:19;17.60;99.90
4081;DHT22;2055;50.074;8.436;2022-07-10T08:27:44;17.70;99.90
4081;DHT22;2055;50.074;8.436;2022-07-10T08:30:11;17.80;99.90
4081;DHT22;2055;50.074;8.436;2022-07-10T08:32:38;18.80;99.90
4081;DHT22;2055;50.074;8.436;2022-07-10T08:35:04;17.40;99.90
4081;DHT22;2055;50.074;8.436;2022-07-10T08:37:39;17.20;99.90
4081;DHT22;2055;50.074;8.436;2022-07-10T08:40:06;16.80;99.90
4081;DHT22;2055;50.074;8.436;2022-07-10T08:42:33;16.70;99.90
4081;DHT22;2055;50.074;8.436;2022-07-10T08:44:59;16.60;99.90
4081;DHT22;2055;50.074;8.436;2022-07-10T08:47:25;17.90;99.90
4081;DHT22;2055;50.074;8.436;2022-07-10T08:49:51;17.90;99.90
4081;DHT22;2055;50.074;8.436;2022-07-10T08:52:30;18.60;99.90
4081;DHT22;2055;50.074;8.436;2022-07-10T08:54:57;18.60;99.90
4081;DHT22;2055;50.074;8.436;2022-07-10T08:57:23;18.70;99.90
4081;DHT22;2055;50.074;8.436;2022-07-10T08:59:49;18.20;99.90
4081;DHT22;2055;50.074;8.436;2022-07-10T09:02:15;18.70;99.90
4081;DHT22;2055;50.074;8.436;2022-07-10T09:04:41;17.90;99.90
4081;DHT22;2055;50.074;8.436;2022-07-10T09:07:06;18.20;99.90
4081;DHT22;2055;50.074;8.436;2022-07-10T09:09:56;18.60;99.90
4081;DHT22;2055;50.074;8.436;2022-07-10T09:12:24;18.80;99.90
4081;DHT22;2055;50.074;8.436;2022-07-10T09:14:50;19.00;99.90
4081;DHT22;2055;50.074;8.436;2022-07-10T09:17:17;19.40;99.90
4081;DHT22;2055;50.074;8.436;2022-07-10T09:19:43;19.00;99.90
4081;DHT22;2055;50.074;8.436;2022-07-10T09:22:10;18.50;99.90
4081;DHT22;2055;50.074;8.436;2022-07-10T09:24:45;18.20;99.90
4081;DHT22;2055;50.074;8.436;2022-07-10T09:27:15;17.80;99.90
4081;DHT22;2055;50.074;8.436;2022-07-10T09:29:51;17.80;99.90
4081;DHT22;2055;50.074;8.436;2022-07-10T09:32:39;18.20;99.90
4081;DHT22;2055;50.074;8.436;2022-07-10T09:35:05;17.70;99.90
4081;DHT22;2055;50.074;8.436;2022-07-10T09:37:51;17.40;99.90
4081;DHT22;2055;50.074;8.436;2022-07-10T09:40:16;17.40;99.90
4081;DHT22;2055;50.074;8.436;2022-07-10T09:42:43;17.90;99.90
4081;DHT22;2055;50.074;8.436;2022-07-10T09:52:55;19.80;99.90
4081;DHT22;2055;50.074;8.436;2022-07-10T09:55:23;20.30;99.90
4081;DHT22;2055;50.074;8.436;2022-07-10T09:57:54;21.00;99.90
4081;DHT22;2055;50.074;8.436;2022-07-10T10:00:23;21.50;99.90
4081;DHT22;2055;50.074;8.436;2022-07-10T10:02:54;20.60;99.90
4081;DHT22;2055;50.074;8.436;2022-07-10T10:05:22;20.30;99.90
4081;DHT22;2055;50.074;8.436;2022-07-10T10:07:51;20.10;99.90
4081;DHT22;2055;50.074;8.436;2022-07-10T10:10:18;19.60;99.90
4081;DHT22;2055;50.074;8.436;2022-07-10T10:12:48;19.30;99.90
4081;DHT22;2055;50.074;8.436;2022-07-10T10:15:18;19.60;99.90
4081;DHT22;2055;50.074;8.436;2022-07-10T10:17:45;19.10;99.90
4081;DHT22;2055;50.074;8.436;2022-07-10T10:20:13;19.20;99.90
4081;DHT22;2055;50.074;8.436;2022-07-10T10:22:58;19.10;99.90
4081;DHT22;2055;50.074;8.436;2022-07-10T10:25:26;19.10;99.90
4081;DHT22;2055;50.074;8.436;2022-07-10T10:27:53;19.40;99.90
4081;DHT22;2055;50.074;8.436;2022-07-10T10:30:20;19.70;99.90
4081;DHT22;2055;50.074;8.436;2022-07-10T10:32:45;19.90;99.90
4081;DHT22;2055;50.074;8.436;2022-07-10T10:35:11;20.40;99.90
4081;DHT22;2055;50.074;8.436;2022-07-10T10:37:56;20.50;99.90
4081;DHT22;2055;50.074;8.436;2022-07-10T10:40:33;20.40;99.90
4081;DHT22;2055;50.074;8.436;2022-07-10T10:43:04;20.50;99.90
4081;DHT22;2055;50.074;8.436;2022-07-10T10:45:40;21.70;99.90
4081;DHT22;2055;50.074;8.436;2022-07-10T10:48:10;22.40;99.90
4081;DHT22;2055;50.074;8.436;2022-07-10T10:53:12;22.90;99.90
4081;DHT22;2055;50.074;8.436;2022-07-10T10:55:38;22.00;99.90
4081;DHT22;2055;50.074;8.436;2022-07-10T10:58:17;21.30;99.90
4081;DHT22;2055;50.074;8.436;2022-07-10T11:00:44;21.20;99.90
4081;DHT22;2055;50.074;8.436;2022-07-10T11:03:21;20.30;99.90
4081;DHT22;2055;50.074;8.436;2022-07-10T11:05:48;20.80;99.90
4081;DHT22;2055;50.074;8.436;2022-07-10T11:08:35;24.00;99.90
4081;DHT22;2055;50.074;8.436;2022-07-10T11:11:01;22.40;99.90
4081;DHT22;2055;50.074;8.436;2022-07-10T11:13:27;22.30;99.90
4081;DHT22;2055;50.074;8.436;2022-07-10T11:15:56;21.70;99.90
4081;DHT22;2055;50.074;8.436;2022-07-10T11:18:23;22.40;99.90
4081;DHT22;2055;50.074;8.436;2022-07-10T11:20:51;21.40;99.90
4081;DHT22;2055;50.074;8.436;2022-07-10T11:26:25;21.10;99.90
4081;DHT22;2055;50.074;8.436;2022-07-10T11:28:59;21.20;99.90
4081;DHT22;2055;50.074;8.436;2022-07-10T11:31:26;21.40;99.90
4081;DHT22;2055;50.074;8.436;2022-07-10T11:33:55;21.80;99.90
4081;DHT22;2055;50.074;8.436;2022-07-10T11:36:23;22.10;99.90
4081;DHT22;2055;50.074;8.436;2022-07-10T11:39:12;22.90;99.90
4081;DHT22;2055;50.074;8.436;2022-07-10T11:41:45;23.00;99.90
4081;DHT22;2055;50.074;8.436;2022-07-10T11:44:15;23.30;99.90
4081;DHT22;2055;50.074;8.436;2022-07-10T11:46:44;24.20;99.90
4081;DHT22;2055;50.074;8.436;2022-07-10T11:49:11;24.30;99.90
4081;DHT22;2055;50.074;8.436;2022-07-10T11:51:38;24.00;99.90
4081;DHT22;2055;50.074;8.436;2022-07-10T11:54:09;24.10;99.90
4081;DHT22;2055;50.074;8.436;2022-07-10T11:56:38;24.10;99.90
4081;DHT22;2055;50.074;8.436;2022-07-10T11:59:08;23.80;99.90
4081;DHT22;2055;50.074;8.436;2022-07-10T12:01:40;23.40;99.90
4081;DHT22;2055;50.074;8.436;2022-07-10T12:04:06;22.70;99.90
4081;DHT22;2055;50.074;8.436;2022-07-10T12:06:35;22.30;99.90
4081;DHT22;2055;50.074;8.436;2022-07-10T12:11:28;22.20;99.90
4081;DHT22;2055;50.074;8.436;2022-07-10T12:14:18;22.60;99.90
4081;DHT22;2055;50.074;8.436;2022-07-10T12:16:45;23.20;99.90
4081;DHT22;2055;50.074;8.436;2022-07-10T12:19:25;21.90;99.90
4081;DHT22;2055;50.074;8.436;2022-07-10T12:21:53;21.60;99.90
4081;DHT22;2055;50.074;8.436;2022-07-10T12:24:20;21.00;99.90
4081;DHT22;2055;50.074;8.436;2022-07-10T12:26:47;22.00;99.90
4081;DHT22;2055;50.074;8.436;2022-07-10T12:29:25;22.30;99.90
4081;DHT22;2055;50.074;8.436;2022-07-10T12:31:56;22.70;99.90
4081;DHT22;2055;50.074;8.436;2022-07-10T12:34:37;22.00;99.90
4081;DHT22;2055;50.074;8.436;2022-07-10T12:37:09;22.70;99.90
4081;DHT22;2055;50.074;8.436;2022-07-10T12:39:46;23.10;99.90
4081;DHT22;2055;50.074;8.436;2022-07-10T12:42:12;22.60;99.90
4081;DHT22;2055;50.074;8.436;2022-07-10T12:44:42;22.30;99.90
4081;DHT22;2055;50.074;8.436;2022-07-10T12:47:10;23.70;99.90
4081;DHT22;2055;50.074;8.436;2022-07-10T12:50:03;23.70;99.90
4081;DHT22;2055;50.074;8.436;2022-07-10T12:55:18;24.20;99.90
4081;DHT22;2055;50.074;8.436;2022-07-10T12:57:59;23.90;99.90
4081;DHT22;2055;50.074;8.436;2022-07-10T13:00:32;23.10;99.90
4081;DHT22;2055;50.074;8.436;2022-07-10T13:03:00;22.70;99.90
4081;DHT22;2055;50.074;8.436;2022-07-10T13:05:36;22.70;99.90
4081;DHT22;2055;50.074;8.436;2022-07-10T13:10:33;23.10;99.90
4081;DHT22;2055;50.074;8.436;2022-07-10T13:12:59;24.60;99.90
4081;DHT22;2055;50.074;8.436;2022-07-10T13:15:25;25.00;99.90
4081;DHT22;2055;50.074;8.436;2022-07-10T13:17:50;25.00;99.90
4081;DHT22;2055;50.074;8.436;2022-07-10T13:20:16;24.70;99.90
4081;DHT22;2055;50.074;8.436;2022-07-10T13:22:41;24.40;99.90
4081;DHT22;2055;50.074;8.436;2022-07-10T13:25:08;24.90;99.90
4081;DHT22;2055;50.074;8.436;2022-07-10T13:27:34;24.20;99.90
4081;DHT22;2055;50.074;8.436;2022-07-10T13:30:05;23.80;99.90
4081;DHT22;2055;50.074;8.436;2022-07-10T13:32:31;22.90;99.90
4081;DHT22;2055;50.074;8.436;2022-07-10T13:34:56;22.30;99.90
4081;DHT22;2055;50.074;8.436;2022-07-10T13:37:22;22.10;99.90
4081;DHT22;2055;50.074;8.436;2022-07-10T13:39:48;22.20;99.90
4081;DHT22;2055;50.074;8.436;2022-07-10T13:42:13;22.40;99.90
4081;DHT22;2055;50.074;8.436;2022-07-10T13:44:39;22.00;99.90
4081;DHT22;2055;50.074;8.436;2022-07-10T13:47:05;21.50;99.90
4081;DHT22;2055;50.074;8.436;2022-07-10T13:49:31;21.70;99.90
4081;DHT22;2055;50.074;8.436;2022-07-10T13:51:57;22.00;99.90
4081;DHT22;2055;50.074;8.436;2022-07-10T13:54:23;23.80;99.90
4081;DHT22;2055;50.074;8.436;2022-07-10T13:56:48;21.40;99.90
4081;DHT22;2055;50.074;8.436;2022-07-10T13:59:14;21.60;99.90
4081;DHT22;2055;50.074;8.436;2022-07-10T14:01:39;21.50;99.90
4081;DHT22;2055;50.074;8.436;2022-07-10T14:04:05;22.00;99.90
4081;DHT22;2055;50.074;8.436;2022-07-10T14:06:31;22.40;99.90
4081;DHT22;2055;50.074;8.436;2022-07-10T14:08:56;22.40;99.90
4081;DHT22;2055;50.074;8.436;2022-07-10T14:11:22;21.90;99.90
4081;DHT22;2055;50.074;8.436;2022-07-10T14:13:47;22.20;99.90
4081;DHT22;2055;50.074;8.436;2022-07-10T14:16:13;21.40;99.90
4081;DHT22;2055;50.074;8.436;2022-07-10T14:18:39;21.70;99.90
4081;DHT22;2055;50.074;8.436;2022-07-10T14:21:10;22.00;99.90
4081;DHT22;2055;50.074;8.436;2022-07-10T14:23:41;21.90;99.90
4081;DHT22;2055;50.074;8.436;2022-07-10T14:26:10;22.00;99.90
4081;DHT22;2055;50.074;8.436;2022-07-10T14:28:36;21.90;99.90
4081;DHT22;2055;50.074;8.436;2022-07-10T14:31:04;21.10;99.90
4081;DHT22;2055;50.074;8.436;2022-07-10T14:33:31;20.80;99.90
4081;DHT22;2055;50.074;8.436;2022-07-10T14:35:57;21.00;99.90
4081;DHT22;2055;50.074;8.436;2022-07-10T14:38:23;21.20;99.90
4081;DHT22;2055;50.074;8.436;2022-07-10T14:40:49;21.10;99.90
4081;DHT22;2055;50.074;8.436;2022-07-10T14:43:17;22.40;99.90
4081;DHT22;2055;50.074;8.436;2022-07-10T14:45:42;20.90;99.90
4081;DHT22;2055;50.074;8.436;2022-07-10T14:48:08;20.90;99.90
4081;DHT22;2055;50.074;8.436;2022-07-10T14:50:34;21.10;99.90
4081;DHT22;2055;50.074;8.436;2022-07-10T14:52:59;21.00;99.90
4081;DHT22;2055;50.074;8.436;2022-07-10T14:55:25;21.30;99.90
4081;DHT22;2055;50.074;8.436;2022-07-10T14:57:51;21.80;99.90
4081;DHT22;2055;50.074;8.436;2022-07-10T15:00:17;21.40;99.90
4081;DHT22;2055;50.074;8.436;2022-07-10T15:02:44;21.60;99.90
4081;DHT22;2055;50.074;8.436;2022-07-10T15:05:09;22.40;99.90
4081;DHT22;2055;50.074;8.436;2022-07-10T15:07:35;23.30;99.90
4081;DHT22;2055;50.074;8.436;2022-07-10T15:10:00;22.80;99.90
4081;DHT22;2055;50.074;8.436;2022-07-10T15:12:26;22.40;99.90
4081;DHT22;2055;50.074;8.436;2022-07-10T15:14:51;21.50;99.90
4081;DHT22;2055;50.074;8.436;2022-07-10T15:17:18;22.30;99.90
4081;DHT22;2055;50.074;8.436;2022-07-10T15:19:44;22.60;99.90
4081;DHT22;2055;50.074;8.436;2022-07-10T15:22:09;23.20;99.90
4081;DHT22;2055;50.074;8.436;2022-07-10T15:24:35;23.30;99.90
4081;DHT22;2055;50.074;8.436;2022-07-10T15:27:00;22.50;99.90
4081;DHT22;2055;50.074;8.436;2022-07-10T15:29:26;22.70;99.90
4081;DHT22;2055;50.074;8.436;2022-07-10T15:31:52;22.60;99.90
4081;DHT22;2055;50.074;8.436;2022-07-10T15:34:18;23.10;99.90
4081;DHT22;2055;50.074;8.436;2022-07-10T15:36:43;23.20;99.90
4081;DHT22;2055;50.074;8.436;2022-07-10T15:39:12;22.90;99.90
4081;DHT22;2055;50.074;8.436;2022-07-10T15:41:38;23.30;99.90
4081;DHT22;2055;50.074;8.436;2022-07-10T15:44:05;23.30;99.90
4081;DHT22;2055;50.074;8.436;2022-07-10T15:46:31;23.40;99.90
4081;DHT22;2055;50.074;8.436;2022-07-10T15:48:57;23.20;99.90
4081;DHT22;2055;50.074;8.436;2022-07-10T15:51:24;22.90;99.90
4081;DHT22;2055;50.074;8.436;2022-07-10T15:53:50;22.70;99.90
4081;DHT22;2055;50.074;8.436;2022-07-10T15:56:15;21.60;99.90
4081;DHT22;2055;50.074;8.436;2022-07-10T15:58:41;21.40;99.90
4081;DHT22;2055;50.074;8.436;2022-07-10T16:01:08;21.30;99.90
4081;DHT22;2055;50.074;8.436;2022-07-10T16:03:35;21.50;99.90
4081;DHT22;2055;50.074;8.436;2022-07-10T16:06:01;21.70;99.90
4081;DHT22;2055;50.074;8.436;2022-07-10T16:08:26;21.90;99.90
4081;DHT22;2055;50.074;8.436;2022-07-10T16:10:52;22.10;99.90
4081;DHT22;2055;50.074;8.436;2022-07-10T16:13:18;21.80;99.90
4081;DHT22;2055;50.074;8.436;2022-07-10T16:15:43;22.20;99.90
4081;DHT22;2055;50.074;8.436;2022-07-10T16:18:09;22.80;99.90
4081;DHT22;2055;50.074;8.436;2022-07-10T16:20:35;21.70;99.90
4081;DHT22;2055;50.074;8.436;2022-07-10T16:23:01;22.10;99.90
4081;DHT22;2055;50.074;8.436;2022-07-10T16:25:27;21.60;99.90
4081;DHT22;2055;50.074;8.436;2022-07-10T16:28:12;21.50;99.90